Time;durP1;ratioP1;P1;durP2;ratioP2;P2;SDS_P1;SDS_P2;PMS_P1;PMS_P2;Temp;Humidity;BMP_temperature;BMP_pressure;BME280_temperature;BME280_humidity;BME280_pressure;Samples;Min_cycle;Max_cycle;Signal;HPM_P1;HPM_P2
2022/11/29 00:00:18;;;;;;;155.93;42.60;;;;;;;7.34;100.00;67582.22;5013926;28;20147;-85
2022/11/29 00:02:44;;;;;;;155.23;41.47;;;;;;;7.34;100.00;67584.88;5027044;28;20164;-84
2022/11/29 00:05:09;;;;;;;170.27;51.65;;;;;;;7.35;100.00;67580.16;5027514;28;20090;-84
2022/11/29 00:07:34;;;;;;;160.70;45.08;;;;;;;7.35;100.00;67583.34;5027052;28;20042;-85
2022/11/29 00:10:00;;;;;;;183.32;52.17;;;;;;;7.36;100.00;67586.56;5024058;28;20115;-84
2022/11/29 00:12:25;;;;;;;148.93;44.72;;;;;;;7.36;100.00;67595.06;5025961;28;20040;-84
2022/11/29 00:14:51;;;;;;;174.70;48.92;;;;;;;;;;5006849;28;20046;-84
2022/11/29 00:17:16;;;;;;;154.35;40.40;;;;;;;7.36;100.00;67587.13;5015820;28;20080;-85
2022/11/29 00:19:43;;;;;;;157.05;41.30;;;;;;;7.36;100.00;67586.56;5022223;28;20256;-84
2022/11/29 00:22:09;;;;;;;160.63;47.97;;;;;;;;;;5027140;28;20037;-85
2022/11/29 00:24:35;;;;;;;143.10;39.22;;;;;;;7.37;100.00;67587.72;5025538;28;20104;-82
2022/11/29 00:27:00;;;;;;;153.27;48.58;;;;;;;;;;5037460;28;20043;-83
2022/11/29 00:29:26;;;;;;;160.98;44.42;;;;;;;7.37;100.00;67585.06;5030013;28;20045;-83
2022/11/29 00:31:52;;;;;;;154.05;48.22;;;;;;;7.35;100.00;67585.44;5013083;28;20475;-85
2022/11/29 00:34:17;;;;;;;144.23;46.95;;;;;;;;;;5022949;28;20098;-85
2022/11/29 00:36:42;;;;;;;141.50;42.50;;;;;;;7.36;100.00;67591.84;5028004;28;20042;-83
2022/11/29 00:39:10;;;;;;;173.80;52.50;;;;;;;;;;5025765;28;20045;-84
2022/11/29 00:41:35;;;;;;;165.30;50.45;;;;;;;7.34;100.00;67584.88;5029849;28;20496;-85
2022/11/29 00:44:01;;;;;;;154.10;50.72;;;;;;;7.35;100.00;67585.44;5027193;28;20046;-83
2022/11/29 00:46:26;;;;;;;156.32;50.20;;;;;;;;;;5035235;28;20037;-85
2022/11/29 00:48:51;;;;;;;179.18;50.65;;;;;;;7.31;100.00;67581.47;5027483;28;20054;-81
2022/11/29 00:51:17;;;;;;;174.15;51.15;;;;;;;7.33;100.00;67588.47;5019187;28;20030;-83
2022/11/29 00:53:42;;;;;;;177.75;51.33;;;;;;;7.32;100.00;67582.03;5026920;28;20041;-84
2022/11/29 00:56:08;;;;;;;169.85;51.80;;;;;;;7.33;100.00;67583.16;5025089;28;20404;-84
2022/11/29 00:58:34;;;;;;;146.85;44.97;;;;;;;7.31;100.00;67586.78;5025029;28;20091;-81
2022/11/29 01:01:00;;;;;;;159.82;47.25;;;;;;;;;;5027015;28;20096;-84
2022/11/29 01:03:25;;;;;;;161.50;44.85;;;;;;;;;;5023761;28;20533;-84
2022/11/29 01:05:51;;;;;;;169.18;48.85;;;;;;;7.33;100.00;67583.72;5027763;28;20548;-84
2022/11/29 01:08:16;;;;;;;150.27;43.38;;;;;;;;;;5028396;28;20040;-84
2022/11/29 01:10:42;;;;;;;154.68;45.83;;;;;;;;;;5031684;28;20408;-85
2022/11/29 01:13:08;;;;;;;154.38;50.35;;;;;;;7.33;100.00;67583.72;5025858;28;20267;-85
2022/11/29 01:15:35;;;;;;;144.00;47.05;;;;;;;7.32;100.00;67587.91;5028939;28;20053;-81
2022/11/29 01:18:00;;;;;;;143.63;47.53;;;;;;;7.32;100.00;67577.31;5028271;28;20048;-83
2022/11/29 01:20:26;;;;;;;157.40;45.03;;;;;;;;;;5028242;28;20041;-84
2022/11/29 01:22:51;;;;;;;151.85;48.85;;;;;;;7.31;100.00;67578.25;5025687;28;20042;-85
2022/11/29 01:25:18;;;;;;;136.00;45.20;;;;;;;;;;5031699;28;20033;-83
2022/11/29 01:27:43;;;;;;;144.32;48.42;;;;;;;;;;5026420;28;20132;-85
2022/11/29 01:30:09;;;;;;;148.10;51.17;;;;;;;7.32;100.00;67587.91;5030732;28;20127;-83
2022/11/29 01:32:35;;;;;;;141.75;48.15;;;;;;;;;;5025492;28;20049;-85
2022/11/29 01:35:00;;;;;;;155.55;48.05;;;;;;;;;;5028209;28;20605;-85
2022/11/29 01:37:28;;;;;;;151.68;48.60;;;;;;;7.31;100.00;67581.47;5022423;28;20467;-86
2022/11/29 01:39:53;;;;;;;150.18;50.13;;;;;;;7.31;100.00;67581.47;5031830;28;20073;-83
2022/11/29 01:42:18;;;;;;;135.13;45.97;;;;;;;7.31;100.00;67586.78;5020821;28;20065;-85
2022/11/29 01:44:43;;;;;;;135.00;44.30;;;;;;;;;;5033894;28;20037;-86
2022/11/29 01:47:10;;;;;;;140.30;43.27;;;;;;;7.32;100.00;67582.59;5026047;28;20569;-85
2022/11/29 01:49:42;;;;;;;135.27;43.42;;;;;;;7.30;100.00;67577.69;5026900;28;20860;-85
2022/11/29 01:52:19;;;;;;;137.70;42.63;;;;;;;7.32;100.00;67582.59;5019714;28;20128;-85
2022/11/29 01:54:48;;;;;;;134.35;42.88;;;;;;;7.31;100.00;67581.47;5024232;28;20106;-85
2022/11/29 01:57:14;;;;;;;150.38;44.60;;;;;;;;;;5028675;28;20091;-85
2022/11/29 01:59:44;;;;;;;146.90;44.60;;;;;;;;;;5020234;28;20053;-86
2022/11/29 02:02:13;;;;;;;155.90;48.83;;;;;;;7.32;100.00;67582.59;5024129;28;20079;-85
2022/11/29 02:04:40;;;;;;;139.07;44.85;;;;;;;;;;5024582;28;20048;-86
2022/11/29 02:07:06;;;;;;;142.90;45.28;;;;;;;;;;5022321;28;20044;-83
2022/11/29 02:09:32;;;;;;;154.60;44.42;;;;;;;7.32;100.00;67579.41;5024041;28;20501;-83
2022/11/29 02:12:05;;;;;;;133.98;42.42;;;;;;;7.32;100.00;67582.59;5026985;28;20454;-84
2022/11/29 02:14:37;;;;;;;133.73;43.13;;;;;;;7.32;100.00;67587.34;5026673;28;20244;-84
2022/11/29 02:17:20;;;;;;;127.78;40.17;;;;;;;7.31;100.00;67581.47;5024614;28;20174;-84
2022/11/29 02:20:39;;;;;;;181.65;43.05;;;;;;;7.25;100.00;67580.00;5008109;28;20104;-85
2022/11/29 02:23:04;;;;;;;;;;;;;;;;;;4952250;28;20042;-85
2022/11/29 02:26:08;;;;;;;357.52;51.85;;;;;;;7.03;100.00;67550.38;5034402;23;19975;-84
2022/11/29 02:28:39;;;;;;;173.63;44.38;;;;;;;6.95;100.00;67541.31;4957499;28;20545;-83
2022/11/29 02:31:55;;;;;;;196.55;48.67;;;;;;;7.03;100.00;67550.38;5004950;28;20470;-81
2022/11/29 02:34:49;;;;;;;171.82;45.92;;;;;;;6.90;100.00;67541.50;4974174;28;20053;-83
2022/11/29 02:37:45;;;;;;;162.57;44.58;;;;;;;6.86;100.00;67536.44;4992290;28;20062;-82
2022/11/29 02:40:26;;;;;;;155.68;43.17;;;;;;;6.86;100.00;67537.00;4988823;28;20038;-83
2022/11/29 02:43:04;;;;;;;232.95;55.95;;;;;;;6.90;100.00;67536.22;4992965;28;20039;-83
2022/11/29 02:46:03;;;;;;;258.45;59.13;;;;;;;6.91;100.00;67531.50;4995910;28;20073;-85
2022/11/29 02:49:04;;;;;;;370.23;64.40;;;;;;;;;;4988238;28;20042;-83
2022/11/29 02:51:36;;;;;;;295.85;57.88;;;;;;;6.89;100.00;67534.53;4895216;29;20036;-83
2022/11/29 02:54:15;;;;;;;396.08;66.53;;;;;;;6.90;100.00;67541.50;4961288;28;20070;-81
2022/11/29 02:56:48;;;;;;;370.75;60.60;;;;;;;;;;4993039;28;20050;-83
2022/11/29 02:59:35;;;;;;;371.50;63.42;;;;;;;6.90;100.00;67535.66;4990589;28;20102;-84
2022/11/29 03:02:24;;;;;;;442.10;69.50;;;;;;;6.90;100.00;67535.66;4990516;28;20070;-81
2022/11/29 03:05:08;;;;;;;394.45;66.20;;;;;;;;;;4973134;28;20100;-83
2022/11/29 03:07:51;;;;;;;311.20;60.45;;;;;;;6.89;100.00;67535.09;4972634;28;20066;-82
2022/11/29 03:10:37;;;;;;;370.60;66.78;;;;;;;6.88;100.00;67533.41;4974432;28;20508;-82
2022/11/29 03:13:04;;;;;;;273.90;46.22;;;;;;;;;;4975631;28;20452;-83
2022/11/29 03:15:35;;;;;;;361.95;49.17;;;;;;;;;;4977332;28;20038;-83
2022/11/29 03:18:32;;;;;;;306.38;45.45;;;;;;;6.85;100.00;67527.94;4973722;28;20034;-83
2022/11/29 03:21:35;;;;;;;330.98;52.83;;;;;;;6.84;100.00;67528.88;4992403;28;20397;-83
2022/11/29 03:24:11;;;;;;;333.25;60.13;;;;;;;6.80;100.00;67530.19;4979513;28;20038;-82
2022/11/29 03:26:40;;;;;;;419.95;61.75;;;;;;;6.83;100.00;67527.75;4978788;28;20516;-83
2022/11/29 03:29:08;;;;;;;;;;;;;;;6.84;100.00;67529.44;4991106;28;20050;-83
2022/11/29 03:32:03;;;;;;;362.38;47.83;;;;;;;6.78;100.00;67527.94;4994540;28;19917;-81
2022/11/29 03:34:38;;;;;;;406.20;66.63;;;;;;;6.80;100.00;67530.19;4985844;28;20042;-82
2022/11/29 03:37:45;;;;;;;377.65;61.72;;;;;;;6.82;100.00;67532.47;4986909;28;20045;-82
2022/11/29 03:40:15;;;;;;;492.67;66.45;;;;;;;;;;4972233;28;20039;-81
2022/11/29 03:42:52;;;;;;;405.23;55.17;;;;;;;6.85;100.00;67530.56;4990908;28;20472;-81
2022/11/29 03:45:27;;;;;;;418.63;54.22;;;;;;;6.85;100.00;67535.88;4993620;28;20034;-82
2022/11/29 03:48:08;;;;;;;437.15;57.17;;;;;;;6.86;100.00;67531.69;4974513;28;20419;-84
2022/11/29 03:50:40;;;;;;;534.55;68.03;;;;;;;6.86;100.00;67529.06;4990726;28;20035;-82
2022/11/29 03:53:19;;;;;;;464.23;64.25;;;;;;;;;;4972665;28;20046;-82
2022/11/29 03:56:03;;;;;;;431.90;69.05;;;;;;;6.89;100.00;67535.09;4973086;28;20049;-83
2022/11/29 03:58:48;;;;;;;328.38;63.50;;;;;;;6.89;100.00;67540.38;4955323;28;20654;-83
2022/11/29 04:01:20;;;;;;;350.00;60.75;;;;;;;6.90;100.00;67536.22;4988478;28;20038;-82
2022/11/29 04:04:03;;;;;;;355.70;64.68;;;;;;;;;;4972622;28;20113;-84
2022/11/29 04:06:29;;;;;;;377.52;60.33;;;;;;;6.91;100.00;67537.34;4991748;28;20090;-84
2022/11/29 04:09:03;;;;;;;392.23;59.15;;;;;;;;;;4991657;28;20501;-83
2022/11/29 04:11:57;;;;;;;357.83;52.67;;;;;;;6.91;100.00;67545.28;4990684;28;20050;-83
2022/11/29 04:14:22;;;;;;;444.40;67.65;;;;;;;;;;4982762;28;20069;-82
2022/11/29 04:16:53;;;;;;;552.10;77.20;;;;;;;6.92;100.00;67538.47;4977175;28;20039;-83
2022/11/29 04:19:51;;;;;;;521.80;74.30;;;;;;;6.92;100.00;67537.91;4977951;28;20337;-82
2022/11/29 04:22:35;;;;;;;505.38;70.75;;;;;;;;;;4959672;28;20054;-80
2022/11/29 04:25:18;;;;;;;530.90;69.75;;;;;;;6.91;100.00;67537.34;4992042;28;20066;-81
2022/11/29 04:27:50;;;;;;;418.10;69.45;;;;;;;;;;5002920;28;20049;-83
2022/11/29 04:30:15;;;;;;;445.15;64.93;;;;;;;;;;4994939;28;20116;-82
2022/11/29 04:33:00;;;;;;;548.10;77.38;;;;;;;6.91;100.00;67536.78;5000474;28;20524;-83
2022/11/29 04:35:44;;;;;;;488.55;67.15;;;;;;;;;;4999512;28;20046;-83
2022/11/29 04:38:28;;;;;;;515.35;70.18;;;;;;;;;;4941687;28;20504;-83
2022/11/29 04:41:28;;;;;;;478.95;69.63;;;;;;;6.89;100.00;67534.53;4998372;28;20058;-83
2022/11/29 04:43:53;;;;;;;529.60;67.18;;;;;;;;;;4972837;28;20480;-81
2022/11/29 04:46:48;;;;;;;530.87;73.50;;;;;;;6.90;100.00;67536.22;4991796;28;20114;-83
2022/11/29 04:49:28;;;;;;;400.95;49.50;;;;;;;;;;4989897;28;20301;-81
2022/11/29 04:52:24;;;;;;;516.30;64.53;;;;;;;6.89;100.00;67535.09;4991604;28;20371;-82
2022/11/29 04:55:22;;;;;;;542.58;71.20;;;;;;;;;;4995403;28;20034;-82
2022/11/29 04:57:52;;;;;;;514.85;74.22;;;;;;;6.90;100.00;67533.00;4933263;28;20038;-80
2022/11/29 05:00:23;;;;;;;487.80;63.78;;;;;;;6.90;100.00;67530.34;4995129;28;20108;-82
2022/11/29 05:02:54;;;;;;;417.17;62.75;;;;;;;;;;4973143;28;20031;-81
2022/11/29 05:05:57;;;;;;;449.40;69.90;;;;;;;6.93;100.00;67536.97;4992681;28;20049;-80
2022/11/29 05:08:44;;;;;;;377.95;66.82;;;;;;;6.92;100.00;67538.47;4965208;28;20655;-79
2022/11/29 05:11:40;;;;;;;346.83;59.42;;;;;;;6.92;100.00;67548.50;4986395;28;20311;-80
2022/11/29 05:14:08;;;;;;;322.90;59.45;;;;;;;;;;4989248;28;20417;-79
2022/11/29 05:16:44;;;;;;;298.27;54.33;;;;;;;;;;4988750;28;20061;-80
2022/11/29 05:19:34;;;;;;;281.35;52.75;;;;;;;6.95;100.00;67539.22;4989868;28;20037;-80
2022/11/29 05:22:02;;;;;;;302.95;56.58;;;;;;;6.94;100.00;67540.75;4989105;28;20120;-80
2022/11/29 05:24:30;;;;;;;263.17;49.47;;;;;;;;;;5010731;28;20050;-81
2022/11/29 05:27:05;;;;;;;219.30;45.28;;;;;;;6.93;100.00;67536.97;4988113;28;20042;-81
2022/11/29 05:29:45;;;;;;;286.45;58.40;;;;;;;6.96;100.00;67543.00;4988626;28;20713;-80
2022/11/29 05:32:19;;;;;;;239.90;46.25;;;;;;;6.93;100.00;67536.97;4993789;28;20074;-80
2022/11/29 05:35:10;;;;;;;248.82;49.00;;;;;;;6.94;100.00;67548.13;4966375;28;20039;-82
2022/11/29 05:37:47;;;;;;;237.07;43.72;;;;;;;6.91;100.00;67537.34;4969515;28;20042;-81
2022/11/29 05:40:31;;;;;;;192.45;37.67;;;;;;;;;;4991659;28;20489;-81
2022/11/29 05:43:15;;;;;;;191.05;37.85;;;;;;;;;;4990699;28;20052;-81
2022/11/29 05:45:50;;;;;;;206.80;41.17;;;;;;;6.88;100.00;67539.25;4993730;28;20058;-81
2022/11/29 05:48:44;;;;;;;216.45;44.63;;;;;;;6.87;100.00;67530.16;4991285;28;20046;-81
2022/11/29 05:51:20;;;;;;;231.07;47.83;;;;;;;6.87;100.00;67532.81;4985713;28;20120;-81
2022/11/29 05:54:06;;;;;;;222.13;39.63;;;;;;;;;;4983340;28;20375;-82
2022/11/29 05:56:54;;;;;;;181.00;29.42;;;;;;;;;;4984277;28;20053;-81
2022/11/29 05:59:26;;;;;;;219.80;36.60;;;;;;;6.86;100.00;67531.69;4982777;28;20617;-81
2022/11/29 06:02:09;;;;;;;248.40;42.30;;;;;;;;;;4968070;28;20829;-81
2022/11/29 06:04:35;;;;;;;210.23;39.88;;;;;;;6.85;100.00;67530.56;4986480;28;20042;-81
2022/11/29 06:07:13;;;;;;;199.18;38.63;;;;;;;6.83;100.00;67525.09;4967138;28;20056;-81
2022/11/29 06:09:48;;;;;;;166.50;35.85;;;;;;;6.78;100.00;67527.94;4986830;28;20417;-81
2022/11/29 06:12:18;;;;;;;208.52;38.58;;;;;;;;;;4993659;28;20046;-81
2022/11/29 06:15:09;;;;;;;226.80;39.67;;;;;;;6.76;100.00;67526.25;4987110;28;20054;-80
2022/11/29 06:17:47;;;;;;;191.13;29.17;;;;;;;;;;4971056;28;20126;-81
2022/11/29 06:20:25;;;;;;;161.43;32.85;;;;;;;;;;4987433;28;20726;-81
2022/11/29 06:23:11;;;;;;;157.83;29.70;;;;;;;6.65;100.00;67505.88;4984601;28;20078;-80
2022/11/29 06:25:47;;;;;;;156.88;33.50;;;;;;;6.63;100.00;67510.97;4970620;28;20295;-80
2022/11/29 06:28:21;;;;;;;174.52;33.97;;;;;;;6.63;100.00;67510.97;4986666;28;20517;-80
2022/11/29 06:31:00;;;;;;;185.38;33.08;;;;;;;6.64;100.00;67512.09;4971749;28;20402;-82
2022/11/29 06:34:01;;;;;;;191.60;38.47;;;;;;;;;;4968306;28;20057;-81
2022/11/29 06:36:47;;;;;;;224.02;38.75;;;;;;;6.63;100.00;67513.63;4901346;29;20807;-81
2022/11/29 06:39:12;;;;;;;216.48;37.10;;;;;;;;;;4988857;28;20108;-81
2022/11/29 06:41:38;;;;;;;248.45;40.30;;;;;;;6.64;100.00;67504.16;4992431;28;20412;-81
2022/11/29 06:44:04;;;;;;;230.40;39.92;;;;;;;6.64;100.00;67512.09;4988773;28;20046;-81
2022/11/29 06:46:44;;;;;;;266.30;42.92;;;;;;;6.64;100.00;67507.38;4985098;28;20070;-81
2022/11/29 06:49:25;;;;;;;243.20;42.35;;;;;;;6.66;100.00;67514.38;4981333;28;20505;-81
2022/11/29 06:52:15;;;;;;;230.73;37.03;;;;;;;6.66;100.00;67509.06;4986371;28;20441;-83
2022/11/29 06:55:18;;;;;;;290.08;40.22;;;;;;;6.67;100.00;67510.19;4983222;28;20181;-82
2022/11/29 06:58:02;;;;;;;250.93;45.88;;;;;;;6.64;100.00;67506.81;4987284;28;20129;-81
2022/11/29 07:00:40;;;;;;;186.52;36.78;;;;;;;6.62;100.00;67504.53;4985546;28;20042;-81
2022/11/29 07:03:24;;;;;;;186.90;29.50;;;;;;;;;;4985086;28;20046;-82
2022/11/29 07:05:50;;;;;;;167.85;33.85;;;;;;;6.59;100.00;67506.44;4985634;28;20125;-82
2022/11/29 07:08:18;;;;;;;195.50;35.95;;;;;;;6.61;100.00;67509.28;4989456;28;20141;-81
2022/11/29 07:10:48;;;;;;;211.85;38.03;;;;;;;6.60;100.00;67502.84;4990819;28;20122;-82
2022/11/29 07:13:16;;;;;;;217.95;34.97;;;;;;;6.61;100.00;67508.72;4988745;28;20083;-80
2022/11/29 07:16:07;;;;;;;177.88;30.73;;;;;;;6.57;100.00;67504.19;4984758;28;20057;-82
2022/11/29 07:18:51;;;;;;;195.68;35.22;;;;;;;6.52;100.00;67493.81;4984641;28;20514;-82
2022/11/29 07:21:23;;;;;;;207.20;33.83;;;;;;;6.48;100.00;67494.56;4982999;28;20050;-82
2022/11/29 07:24:01;;;;;;;183.13;28.27;;;;;;;6.47;100.00;67488.72;4986988;28;20034;-82
2022/11/29 07:26:59;;;;;;;157.77;30.77;;;;;;;6.44;100.00;67484.75;4988179;28;20046;-82
2022/11/29 07:29:43;;;;;;;161.95;27.02;;;;;;;;;;4984355;28;20050;-81
2022/11/29 07:32:15;;;;;;;196.60;34.90;;;;;;;;;;4984284;28;20053;-82
2022/11/29 07:34:40;;;;;;;236.65;37.92;;;;;;;;;;4995403;28;20080;-81
2022/11/29 07:37:08;;;;;;;224.35;31.30;;;;;;;;;;4988783;28;20742;-80
2022/11/29 07:39:49;;;;;;;263.83;40.35;;;;;;;6.44;100.00;67485.31;4986171;28;20082;-81
2022/11/29 07:42:27;;;;;;;205.45;35.63;;;;;;;6.39;100.00;67476.44;4986905;28;20049;-82
2022/11/29 07:44:58;;;;;;;185.13;39.08;;;;;;;;;;4965588;28;20046;-81
2022/11/29 07:47:24;;;;;;;132.07;24.77;;;;;;;6.31;100.00;67470.63;4969704;28;20129;-81
2022/11/29 07:49:49;;;;;;;147.32;32.30;;;;;;;6.31;100.00;67471.19;4975681;28;20185;-82
2022/11/29 07:52:15;;;;;;;181.27;34.35;;;;;;;6.32;100.00;67471.75;4984456;28;20438;-81
2022/11/29 07:54:41;;;;;;;203.75;34.95;;;;;;;6.33;100.00;67478.19;4993430;28;20046;-82
2022/11/29 07:57:06;;;;;;;211.00;34.65;;;;;;;6.32;100.00;67471.75;4986622;28;20058;-81
2022/11/29 07:59:31;;;;;;;221.93;43.50;;;;;;;;;;4989012;28;20046;-82
2022/11/29 08:01:57;;;;;;;257.55;44.78;;;;;;;6.35;100.00;67474.59;4971322;28;20161;-81
2022/11/29 08:04:23;;;;;;;238.05;34.42;;;;;;;;;;4984010;28;20109;-81
2022/11/29 08:06:48;;;;;;;243.73;40.90;;;;;;;6.37;100.00;67476.84;4984921;28;20042;-82
2022/11/29 08:09:13;;;;;;;253.52;42.70;;;;;;;;;;4989165;28;20141;-81
2022/11/29 08:11:39;;;;;;;277.02;41.03;;;;;;;6.37;100.00;67476.84;4986659;28;20042;-81
2022/11/29 08:14:04;;;;;;;247.60;40.35;;;;;;;;;;4969804;28;20516;-81
2022/11/29 08:16:30;;;;;;;266.38;34.10;;;;;;;6.38;100.00;67475.88;4988357;28;20105;-80
2022/11/29 08:18:55;;;;;;;237.38;34.70;;;;;;;;;;4986169;28;20501;-81
2022/11/29 08:21:20;;;;;;;190.68;28.25;;;;;;;6.34;100.00;67474.03;4988753;28;20409;-81
2022/11/29 08:23:46;;;;;;;186.30;27.67;;;;;;;;;;4987505;28;20046;-81
2022/11/29 08:26:12;;;;;;;199.75;34.47;;;;;;;;;;4987657;28;20101;-81
2022/11/29 08:28:37;;;;;;;154.95;23.55;;;;;;;;;;4988488;28;20042;-81
2022/11/29 08:31:07;;;;;;;149.88;26.45;;;;;;;6.29;100.00;67468.38;4969561;28;20066;-80
2022/11/29 08:33:41;;;;;;;129.82;31.15;;;;;;;6.27;100.00;67466.69;4995228;23;20047;-88
2022/11/29 08:36:16;;;;;;;153.65;30.67;;;;;;;6.31;100.00;67470.63;4969744;28;20130;-88
2022/11/29 08:38:41;;;;;;;161.15;35.28;;;;;;;;;;4973165;28;20062;-89
2022/11/29 08:41:09;;;;;;;162.43;31.40;;;;;;;6.31;100.00;67470.63;4987167;28;20152;-88
2022/11/29 08:43:34;;;;;;;161.05;33.15;;;;;;;6.33;100.00;67472.91;4988761;28;20614;-88
2022/11/29 08:46:00;;;;;;;158.27;37.35;;;;;;;;;;4995149;28;20140;-88
2022/11/29 08:48:25;;;;;;;163.93;30.38;;;;;;;6.35;100.00;67474.59;4996575;28;20484;-88
2022/11/29 08:50:55;;;;;;;170.60;32.85;;;;;;;6.33;100.00;67470.25;4977314;28;20141;-88
2022/11/29 08:56:04;;;;;;;115.30;20.23;;;;;;;;;;5009441;28;20120;-88
2022/11/29 08:58:29;;;;;;;153.75;30.50;;;;;;;6.32;100.00;67472.31;4993970;28;20077;-88
2022/11/29 09:00:55;;;;;;;127.00;23.20;;;;;;;;;;5025719;28;20061;-89
2022/11/29 09:06:05;;;;;;;147.18;29.27;;;;;;;;;;5031972;28;20041;-89
2022/11/29 09:08:30;;;;;;;174.90;26.10;;;;;;;;;;5030513;28;20119;-88
2022/11/29 09:10:56;;;;;;;188.32;28.60;;;;;;;;;;5022918;28;21606;-88
2022/11/29 09:13:21;;;;;;;159.18;33.03;;;;;;;;;;5002197;28;20049;-88
2022/11/29 09:15:46;;;;;;;150.40;28.65;;;;;;;6.39;100.00;67479.69;4987594;28;20069;-88
2022/11/29 09:18:11;;;;;;;172.57;36.67;;;;;;;;;;5011739;28;20092;-88
2022/11/29 09:20:37;;;;;;;129.88;28.08;;;;;;;;;;5008233;28;20410;-88
2022/11/29 09:23:02;;;;;;;143.18;28.15;;;;;;;;;;5009842;28;20124;-88
2022/11/29 09:25:28;;;;;;;121.65;22.75;;;;;;;;;;5004959;28;20077;-88
2022/11/29 09:27:53;;;;;;;152.93;26.90;;;;;;;6.40;100.00;67480.25;5006623;28;20046;-89
2022/11/29 09:30:19;;;;;;;138.15;27.13;;;;;;;6.39;100.00;67479.69;5003577;28;20140;-88
2022/11/29 09:32:45;;;;;;;116.18;21.52;;;;;;;6.38;100.00;67478.53;4992733;28;20538;-88
2022/11/29 09:35:10;;;;;;;98.50;19.42;;;;;;;6.40;100.00;67480.81;5010927;28;20116;-88
2022/11/29 09:37:36;;;;;;;129.10;20.02;;;;;;;;;;5017940;28;20037;-88
2022/11/29 09:40:03;;;;;;;143.93;25.77;;;;;;;6.39;100.00;67484.38;5008294;28;20052;-88
2022/11/29 09:42:44;;;;;;;151.65;27.92;;;;;;;;;;5009980;28;20522;-89
2022/11/29 09:45:17;;;;;;;118.65;22.85;;;;;;;6.42;100.00;67482.50;5002809;28;20066;-88
2022/11/29 09:47:49;;;;;;;168.70;26.58;;;;;;;;;;4996206;28;20208;-88
2022/11/29 09:50:53;;;;;;;171.65;26.25;;;;;;;6.45;100.00;67485.91;5000824;28;20049;-88
2022/11/29 09:53:46;;;;;;;154.10;25.33;;;;;;;6.45;100.00;67485.91;4993324;28;20053;-88
2022/11/29 09:56:24;;;;;;;141.00;24.90;;;;;;;6.48;100.00;67489.84;4989338;28;20041;-89
2022/11/29 09:59:23;;;;;;;141.80;23.38;;;;;;;;;;5007817;28;20496;-88
2022/11/29 10:02:02;;;;;;;112.28;26.17;;;;;;;6.45;100.00;67485.91;4961711;28;20042;-88
2022/11/29 10:04:35;;;;;;;114.90;20.52;;;;;;;6.45;100.00;67493.84;4999622;28;20141;-88
2022/11/29 10:07:27;;;;;;;126.25;25.02;;;;;;;6.47;100.00;67488.16;4995186;28;20038;-89
2022/11/29 10:10:00;;;;;;;130.32;24.45;;;;;;;6.48;100.00;67489.84;5001053;28;20125;-88
2022/11/29 10:12:33;;;;;;;142.13;29.58;;;;;;;;;;5006969;28;20452;-88
2022/11/29 10:15:07;;;;;;;148.85;27.48;;;;;;;6.55;100.00;67495.13;5003902;28;20104;-88
2022/11/29 10:17:56;;;;;;;164.07;24.80;;;;;;;6.52;100.00;67499.66;4985120;28;20051;-89
2022/11/29 10:20:26;;;;;;;132.48;31.35;;;;;;;;;;4902583;29;20214;-88
2022/11/29 10:23:00;;;;;;;135.55;27.55;;;;;;;6.56;100.00;67498.34;4845145;29;20081;-88
2022/11/29 10:25:41;;;;;;;136.23;31.75;;;;;;;6.54;100.00;67493.44;4876764;29;20288;-88
2022/11/29 10:28:13;;;;;;;146.95;27.35;;;;;;;6.53;100.00;67495.50;4877817;29;20053;-89
2022/11/29 10:30:43;;;;;;;140.63;28.50;;;;;;;6.57;100.00;67499.47;4885562;29;20088;-88
2022/11/29 10:33:38;;;;;;;132.50;22.15;;;;;;;6.54;100.00;67496.63;4842999;29;20053;-88
2022/11/29 10:36:32;;;;;;;156.25;33.22;;;;;;;6.59;100.00;67501.72;4868796;29;20116;-89
2022/11/29 10:42:00;;;;;;;131.90;26.35;;;;;;;6.57;100.00;67496.81;4833481;29;20580;-89
2022/11/29 10:44:26;;;;;;;132.13;27.25;;;;;;;6.61;100.00;67508.72;4850645;29;20414;-88
2022/11/29 10:46:52;;;;;;;115.07;20.65;;;;;;;;;;4857278;29;20107;-89
2022/11/29 10:49:23;;;;;;;138.32;32.88;;;;;;;6.66;100.00;67514.38;4888317;29;20440;-89
2022/11/29 10:51:48;;;;;;;133.25;31.45;;;;;;;6.65;100.00;67508.50;4898252;29;20047;-89
2022/11/29 10:54:28;;;;;;;138.00;33.30;;;;;;;;;;4907533;29;20040;-88
2022/11/29 10:56:55;;;;;;;132.00;29.08;;;;;;;;;;4909274;29;20051;-88
2022/11/29 10:59:25;;;;;;;127.10;32.88;;;;;;;;;;4906158;29;20048;-88
2022/11/29 11:01:54;;;;;;;130.93;32.92;;;;;;;6.78;100.00;67523.19;4888583;29;20052;-88
2022/11/29 11:04:33;;;;;;;124.10;26.48;;;;;;;6.78;100.00;67522.66;4905867;29;20040;-89
2022/11/29 11:07:01;;;;;;;156.70;29.88;;;;;;;6.76;100.00;67520.38;4907060;29;20080;-89
2022/11/29 11:09:32;;;;;;;152.00;25.15;;;;;;;6.72;100.00;67516.41;4907688;29;20063;-88
2022/11/29 11:12:00;;;;;;;163.25;31.70;;;;;;;6.80;100.00;67521.69;4985942;28;20411;-88
2022/11/29 11:14:25;;;;;;;196.80;37.03;;;;;;;6.79;100.00;67523.78;5007408;28;20065;-88
2022/11/29 11:16:52;;;;;;;195.02;29.10;;;;;;;6.75;100.00;67519.81;5002305;28;20523;-88
2022/11/29 11:19:31;;;;;;;152.68;24.05;;;;;;;;;;5000570;28;20061;-88
2022/11/29 11:21:59;;;;;;;171.52;29.30;;;;;;;6.76;100.00;67520.97;5004596;28;20528;-88
2022/11/29 11:24:29;;;;;;;175.37;30.40;;;;;;;;;;4997307;28;20053;-88
2022/11/29 11:26:54;;;;;;;169.32;30.65;;;;;;;;;;5003015;28;20305;-88
2022/11/29 11:29:22;;;;;;;198.15;34.38;;;;;;;;;;4983705;28;20050;-88
2022/11/29 11:31:52;;;;;;;199.57;34.55;;;;;;;;;;5007099;28;20467;-89
2022/11/29 11:34:34;;;;;;;214.10;48.83;;;;;;;6.89;100.00;67532.44;5007405;28;20072;-89
2022/11/29 11:37:18;;;;;;;170.35;41.00;;;;;;;;;;5005829;28;20045;-88
2022/11/29 11:39:46;;;;;;;189.30;44.25;;;;;;;6.90;100.00;67533.56;4996421;28;20046;-88
2022/11/29 11:45:00;;;;;;;218.27;41.08;;;;;;;;;;5004806;28;20056;-88
2022/11/29 11:47:31;;;;;;;219.25;47.45;;;;;;;;;;4989662;28;20129;-89
2022/11/29 11:50:00;;;;;;;199.60;42.90;;;;;;;7.03;100.00;67549.81;5007369;28;20065;-88
2022/11/29 11:52:32;;;;;;;197.70;35.10;;;;;;;6.99;100.00;67546.41;5005634;28;20060;-88
2022/11/29 11:55:15;;;;;;;189.98;34.83;;;;;;;7.02;100.00;67549.25;4939591;28;20047;-89
2022/11/29 11:57:46;;;;;;;223.98;46.47;;;;;;;7.04;100.00;67551.50;4863208;29;20432;-89
2022/11/29 12:00:50;;;;;;;203.52;39.17;;;;;;;7.07;100.00;67559.59;4854779;29;20546;-88
2022/11/29 12:03:40;;;;;;;192.65;37.97;;;;;;;7.09;100.00;67551.28;4834921;29;20533;-89
2022/11/29 12:06:24;;;;;;;190.27;39.75;;;;;;;7.12;100.00;67559.97;4850359;29;20072;-89
2022/11/29 12:08:53;;;;;;;201.95;40.38;;;;;;;;;;4852122;29;20045;-89
2022/11/29 12:11:19;;;;;;;183.98;33.78;;;;;;;7.07;100.00;67554.88;4854575;29;20052;-89
2022/11/29 12:13:51;;;;;;;170.35;40.22;;;;;;;7.15;100.00;67563.38;4855622;29;20041;-90
2022/11/29 12:16:31;;;;;;;177.70;39.88;;;;;;;7.15;100.00;67569.22;4870467;29;20136;-89
2022/11/29 12:19:23;;;;;;;185.43;41.08;;;;;;;7.18;100.00;67564.69;4855241;29;20064;-89
2022/11/29 12:21:54;;;;;;;180.65;37.63;;;;;;;7.22;100.00;67569.22;4886542;29;20139;-89
2022/11/29 12:24:31;;;;;;;177.73;38.13;;;;;;;7.24;100.00;67578.84;4887021;29;20059;-89
2022/11/29 12:27:02;;;;;;;194.10;50.58;;;;;;;7.33;100.00;67583.72;4911624;28;20082;-89
2022/11/29 12:29:31;;;;;;;160.55;38.22;;;;;;;7.35;100.00;67586.00;4991983;28;20050;-89
2022/11/29 12:31:59;;;;;;;151.52;36.00;;;;;;;7.38;100.00;67588.84;5005571;28;20049;-89
2022/11/29 12:34:51;;;;;;;148.10;28.33;;;;;;;7.34;100.00;67584.88;4963171;28;20066;-89
2022/11/29 12:37:58;;;;;;;142.70;28.80;;;;;;;7.31;100.00;67580.91;4929928;29;20052;-89
2022/11/29 12:41:21;;;;;;;151.10;35.85;;;;;;;7.30;100.00;67580.34;4843328;29;20132;-89
2022/11/29 12:44:08;;;;;;;151.35;39.75;;;;;;;;;;4817063;29;20152;-89
2022/11/29 12:46:37;;;;;;;138.77;35.55;;;;;;;;;;4935511;28;20043;-89
2022/11/29 12:49:39;;;;;;;137.77;37.08;;;;;;;7.33;100.00;67583.72;4939684;28;20492;-89